createdAt,value
2019-06-07T00:00:51.201Z,96581.97
2019-06-07T00:01:58.605Z,96580.45
2019-06-07T00:03:10.643Z,96579.44
2019-06-07T00:04:16.317Z,96588.22
2019-06-07T00:05:24.303Z,96580.30
2019-06-07T00:06:31.542Z,96577.48
2019-06-07T00:07:39.640Z,96576.78
2019-06-07T00:08:46.865Z,96573.00
2019-06-07T00:09:54.859Z,96569.38
2019-06-07T00:11:02.144Z,96568.20
2019-06-07T00:12:12.062Z,96564.55
2019-06-07T00:13:20.366Z,96559.12
2019-06-07T00:14:28.574Z,96561.31
2019-06-07T00:15:35.798Z,96565.45
2019-06-07T00:16:43.794Z,96567.00
2019-06-07T00:17:51.017Z,96561.22
2019-06-07T00:18:59.043Z,96560.20
2019-06-07T00:20:09.337Z,96564.84
2019-06-07T00:21:17.920Z,96562.50
2019-06-07T00:22:32.937Z,96567.48
2019-06-07T00:23:35.649Z,96563.51
2019-06-07T00:24:43.940Z,96562.59
2019-06-07T00:25:52.035Z,96562.36
2019-06-07T00:26:59.399Z,96565.32
2019-06-07T00:28:08.215Z,96559.76
2019-06-07T00:29:18.549Z,96559.28
2019-06-07T00:30:50.212Z,96556.33
2019-06-07T00:31:34.784Z,96556.80
2019-06-07T00:32:42.865Z,96557.75
2019-06-07T00:33:50.146Z,96558.70
2019-06-07T00:34:58.169Z,96551.88
2019-06-07T00:36:05.954Z,96548.77
2019-06-07T00:37:14.252Z,96551.38
2019-06-07T00:38:22.128Z,96547.97
2019-06-07T00:39:30.294Z,96551.38
2019-06-07T00:40:37.550Z,96555.16
2019-06-07T00:41:45.546Z,96553.02
2019-06-07T00:42:52.785Z,96549.59
2019-06-07T00:44:00.802Z,96546.52
2019-06-07T00:45:08.718Z,96547.34
2019-06-07T00:46:18.818Z,96545.44
2019-06-07T00:47:25.932Z,96548.86
2019-06-07T00:48:34.010Z,96548.86
2019-06-07T00:49:41.798Z,96553.25
2019-06-07T00:50:49.812Z,96542.13
2019-06-07T00:51:57.052Z,96544.73
2019-06-07T00:53:17.171Z,96544.86
2019-06-07T00:54:15.736Z,96545.84
2019-06-07T00:55:27.517Z,96543.37
2019-06-07T00:56:32.585Z,96544.31
2019-06-07T00:57:41.629Z,96543.49
2019-06-07T00:59:09.752Z,96546.22
2019-06-07T00:59:58.691Z,96546.57
2019-06-07T01:01:05.932Z,96543.49
2019-06-07T01:02:14.712Z,96548.09
2019-06-07T01:03:25.626Z,96543.08
2019-06-07T01:04:32.514Z,96538.70
2019-06-07T01:05:39.722Z,96542.95
2019-06-07T01:06:47.748Z,96540.70
2019-06-07T01:07:54.986Z,96540.45
2019-06-07T01:09:03.008Z,96542.45
2019-06-07T01:10:17.385Z,96541.37
2019-06-07T01:11:26.235Z,96540.41
2019-06-07T01:12:33.520Z,96541.08
2019-06-07T01:13:41.509Z,96541.66
2019-06-07T01:14:48.721Z,96542.70
2019-06-07T01:15:56.728Z,96536.41
2019-06-07T01:17:39.659Z,96539.55
2019-06-07T01:18:40.923Z,96538.82
2019-06-07T01:19:44.836Z,96537.99
2019-06-07T01:20:52.844Z,96537.04
2019-06-07T01:22:00.069Z,96532.87
2019-06-07T01:23:51.868Z,96534.91
2019-06-07T01:24:17.595Z,96531.88
2019-06-07T01:25:26.483Z,96530.45
2019-06-07T01:26:34.283Z,96532.32
2019-06-07T01:27:42.301Z,96531.36
2019-06-07T01:28:49.512Z,96534.54
2019-06-07T01:29:57.563Z,96534.72
2019-06-07T01:31:04.792Z,96529.25
2019-06-07T01:32:12.814Z,96525.56
2019-06-07T01:33:20.795Z,96518.43
2019-06-07T01:34:29.525Z,96516.52
2019-06-07T01:35:36.739Z,96504.63
2019-06-07T01:36:44.728Z,96505.80
2019-06-07T01:37:51.951Z,96506.14
2019-06-07T01:39:00.659Z,96501.14
2019-06-07T01:40:10.381Z,96501.97
2019-06-07T01:41:23.074Z,96503.27
2019-06-07T01:42:30.479Z,96502.45
2019-06-07T01:43:37.035Z,96505.88
2019-06-07T01:44:44.278Z,96505.41
2019-06-07T01:45:52.327Z,96503.62
2019-06-07T01:46:59.554Z,96498.41
2019-06-07T01:48:07.576Z,96497.10
2019-06-07T01:49:14.784Z,96499.58
2019-06-07T01:50:25.366Z,96504.92
2019-06-07T01:51:31.800Z,96500.88
2019-06-07T01:52:39.822Z,96497.23
2019-06-07T01:53:47.046Z,96494.63
2019-06-07T01:54:58.633Z,96491.19
2019-06-07T01:56:04.018Z,96488.72
2019-06-07T01:57:30.978Z,96485.77
2019-06-07T01:58:22.235Z,96484.59
2019-06-07T01:59:31.883Z,96486.06
2019-06-07T02:00:39.393Z,96488.92
2019-06-07T02:01:47.363Z,96492.14
2019-06-07T02:02:54.584Z,96491.80
2019-06-07T02:04:03.382Z,96488.84
2019-06-07T02:05:10.887Z,96484.59
2019-06-07T02:06:20.583Z,96484.23
2019-06-07T02:07:32.608Z,96482.59
2019-06-07T02:08:37.558Z,96481.42
2019-06-07T02:09:44.802Z,96482.53
2019-06-07T02:10:52.808Z,96478.76
2019-06-07T02:12:00.033Z,96485.27
2019-06-07T02:13:08.055Z,96494.53
2019-06-07T02:14:15.277Z,96493.70
2019-06-07T02:15:28.008Z,96494.66
2019-06-07T02:16:32.731Z,96490.18
2019-06-07T02:17:40.721Z,96486.75
2019-06-07T02:19:01.293Z,96488.00
2019-06-07T02:19:57.654Z,96493.69
2019-06-07T02:21:04.887Z,96490.01
2019-06-07T02:22:12.862Z,96483.62
2019-06-07T02:23:20.667Z,96493.70
2019-06-07T02:24:32.381Z,96500.69
2019-06-07T02:25:48.583Z,96502.95
2019-06-07T02:26:48.955Z,96504.86
2019-06-07T02:28:25.942Z,96499.80
2019-06-07T02:29:06.005Z,96496.84
2019-06-07T02:31:27.716Z,96496.63
2019-06-07T02:32:36.691Z,96501.14
2019-06-07T02:33:43.368Z,96498.19
2019-06-07T02:34:50.623Z,96498.67
2019-06-07T02:35:58.628Z,96501.27
2019-06-07T02:37:05.918Z,96499.97
2019-06-07T02:38:13.934Z,96501.27
2019-06-07T02:39:23.974Z,96502.58
2019-06-07T02:40:36.009Z,96500.31
2019-06-07T02:41:40.649Z,96500.80
2019-06-07T02:42:48.689Z,96498.19
2019-06-07T02:43:55.890Z,96489.20
2019-06-07T02:45:03.924Z,96488.37
2019-06-07T02:46:34.221Z,96487.08
2019-06-07T02:47:36.107Z,96492.41
2019-06-07T02:48:42.625Z,96483.58
2019-06-07T02:49:50.652Z,96482.41
2019-06-07T02:50:57.887Z,96484.19
2019-06-07T02:52:06.010Z,96484.19
2019-06-07T02:53:13.297Z,96479.45
2019-06-07T02:54:21.530Z,96476.85
2019-06-07T02:55:33.258Z,96469.86
2019-06-07T02:56:53.922Z,96467.39
2019-06-07T02:57:47.382Z,96460.52
2019-06-07T02:58:55.390Z,96457.70
2019-06-07T03:00:17.145Z,96460.66
2019-06-07T03:01:12.770Z,96457.70
2019-06-07T03:02:20.092Z,96452.14
2019-06-07T03:03:28.913Z,96453.45
2019-06-07T03:04:42.075Z,96456.18
2019-06-07T03:05:47.650Z,96452.40
2019-06-07T03:06:57.647Z,96458.12
2019-06-07T03:08:08.381Z,96453.04
2019-06-07T03:09:17.304Z,96452.34
2019-06-07T03:10:28.548Z,96447.73
2019-06-07T03:11:37.618Z,96448.34
2019-06-07T03:12:49.887Z,96457.11
2019-06-07T03:14:00.028Z,96456.41
2019-06-07T03:15:09.108Z,96454.57
2019-06-07T03:16:28.664Z,96460.25
2019-06-07T03:18:03.146Z,96463.81
2019-06-07T03:19:24.378Z,96466.32
2019-06-07T03:20:36.744Z,96462.95
2019-06-07T03:21:44.902Z,96464.51
2019-06-07T03:22:53.809Z,96472.31
2019-06-07T03:24:01.023Z,96468.77
2019-06-07T03:25:09.415Z,96468.77
2019-06-07T03:26:18.880Z,96470.89
2019-06-07T03:27:39.415Z,96482.95
2019-06-07T03:28:39.171Z,96480.70
2019-06-07T03:29:46.420Z,96477.75
2019-06-07T03:31:02.262Z,96482.48
2019-06-07T03:32:03.343Z,96475.49
2019-06-07T03:33:10.529Z,96475.49
2019-06-07T03:34:18.519Z,96478.09
2019-06-07T03:35:29.805Z,96473.84
2019-06-07T03:36:39.207Z,96474.32
2019-06-07T03:37:45.965Z,96476.58
2019-06-07T03:38:53.949Z,96468.41
2019-06-07T03:40:01.171Z,96474.57
2019-06-07T03:41:10.231Z,96467.71
2019-06-07T03:42:17.469Z,96472.70
2019-06-07T03:43:27.276Z,96469.88
2019-06-07T03:44:38.230Z,96471.65
2019-06-07T03:45:45.146Z,96470.28
2019-06-07T03:46:52.403Z,96476.56
2019-06-07T03:48:00.380Z,96484.14
2019-06-07T03:49:07.619Z,96478.59
2019-06-07T03:50:15.616Z,96485.57
2019-06-07T03:51:26.893Z,96487.82
2019-06-07T03:52:35.572Z,96488.10
2019-06-07T03:53:41.881Z,96493.63
2019-06-07T03:54:49.889Z,96498.03
2019-06-07T03:55:57.124Z,96502.89
2019-06-07T03:57:05.133Z,96501.11
2019-06-07T03:59:22.087Z,96503.08
2019-06-07T04:00:32.459Z,96500.48
2019-06-07T04:01:41.258Z,96497.75
2019-06-07T04:02:48.686Z,96502.48
2019-06-07T04:03:56.709Z,96499.41
2019-06-07T04:05:04.109Z,96499.63
2019-06-07T04:06:12.122Z,96499.98
2019-06-07T04:07:19.361Z,96496.30
2019-06-07T04:08:28.225Z,96499.61
2019-06-07T04:09:39.458Z,96493.77
2019-06-07T04:10:59.072Z,96497.67
2019-06-07T04:11:54.234Z,96491.64
2019-06-07T04:13:02.225Z,96489.52
2019-06-07T04:14:09.453Z,96488.72
2019-06-07T04:15:17.667Z,96486.59
2019-06-07T04:16:24.897Z,96481.52
2019-06-07T04:17:34.667Z,96486.25
2019-06-07T04:18:42.505Z,96483.41
2019-06-07T04:19:50.787Z,96485.92
2019-06-07T04:20:57.981Z,96486.17
2019-06-07T04:22:06.029Z,96485.50
2019-06-07T04:23:27.596Z,96483.14
2019-06-07T04:24:25.678Z,96490.73
2019-06-07T04:25:35.641Z,96490.59
2019-06-07T04:26:43.789Z,96492.30
2019-06-07T04:27:51.608Z,96485.09
2019-06-07T04:30:09.988Z,96485.69
2019-06-07T04:31:17.991Z,96490.89
2019-06-07T04:32:25.215Z,96489.59
2019-06-07T04:33:34.980Z,96486.52
2019-06-07T04:34:43.269Z,96482.84
2019-06-07T04:35:51.779Z,96482.23
2019-06-07T04:37:01.053Z,96478.69
2019-06-07T04:38:09.088Z,96477.97
2019-06-07T04:39:16.518Z,96477.11
2019-06-07T04:40:24.500Z,96480.77
2019-06-07T04:41:33.755Z,96472.20
2019-06-07T04:42:46.047Z,96471.95
2019-06-07T04:43:53.442Z,96478.21
2019-06-07T04:45:03.573Z,96472.05
2019-06-07T04:46:12.647Z,96477.01
2019-06-07T04:47:22.144Z,96473.65
2019-06-07T04:48:35.973Z,96464.77
2019-06-07T04:49:45.575Z,96473.14
2019-06-07T04:50:55.097Z,96464.73
2019-06-07T04:52:05.356Z,96465.27
2019-06-07T04:53:12.556Z,96464.67
2019-06-07T04:54:20.572Z,96466.67
2019-06-07T04:55:29.066Z,96468.67
2019-06-07T04:56:40.829Z,96468.89
2019-06-07T04:57:46.104Z,96474.29
2019-06-07T04:58:54.112Z,96472.38
2019-06-07T05:00:12.760Z,96473.91
2019-06-07T05:01:26.228Z,96476.38
2019-06-07T05:02:20.170Z,96474.13
2019-06-07T05:03:30.566Z,96474.95
2019-06-07T05:04:39.052Z,96467.14
2019-06-07T05:05:46.888Z,96474.48
2019-06-07T05:06:54.115Z,96467.97
2019-06-07T05:08:07.407Z,96465.71
2019-06-07T05:09:11.059Z,96466.89
2019-06-07T05:10:19.133Z,96463.33
2019-06-07T05:11:26.380Z,96463.64
2019-06-07T05:12:36.073Z,96459.95
2019-06-07T05:13:44.207Z,96466.21
2019-06-07T05:14:52.333Z,96466.08
2019-06-07T05:15:59.563Z,96461.57
2019-06-07T05:17:07.610Z,96471.22
2019-06-07T05:18:14.808Z,96459.38
2019-06-07T05:19:22.798Z,96462.06
2019-06-07T05:20:30.008Z,96461.33
2019-06-07T05:22:01.925Z,96460.24
2019-06-07T05:22:48.291Z,96453.57
2019-06-07T05:24:06.293Z,96455.56
2019-06-07T05:25:05.500Z,96453.66
2019-06-07T05:26:13.522Z,96448.66
2019-06-07T05:27:20.759Z,96451.99
2019-06-07T05:28:29.775Z,96447.47
2019-06-07T05:29:39.175Z,96449.66
2019-06-07T05:31:56.353Z,96447.48
2019-06-07T05:33:05.937Z,96443.44
2019-06-07T05:34:13.161Z,96444.92
2019-06-07T05:35:21.265Z,96441.84
2019-06-07T05:36:28.445Z,96446.92
2019-06-07T05:37:38.251Z,96449.53
2019-06-07T05:38:45.498Z,96441.02
2019-06-07T05:39:53.449Z,96450.65
2019-06-07T05:41:00.674Z,96448.52
2019-06-07T05:42:08.679Z,96442.96
2019-06-07T05:43:25.385Z,96438.09
2019-06-07T05:44:34.115Z,96442.31
2019-06-07T05:45:44.923Z,96436.79
2019-06-07T05:46:51.191Z,96436.79
2019-06-07T05:47:58.387Z,96434.02
2019-06-07T05:49:06.412Z,96429.16
2019-06-07T05:50:38.538Z,96424.16
2019-06-07T05:51:23.545Z,96429.72
2019-06-07T05:52:30.742Z,96426.50
2019-06-07T05:53:40.440Z,96430.62
2019-06-07T05:54:47.905Z,96428.70
2019-06-07T05:55:55.917Z,96432.14
2019-06-07T05:57:03.152Z,96432.92
2019-06-07T05:58:11.144Z,96432.45
2019-06-07T05:59:18.355Z,96430.19
2019-06-07T06:00:26.376Z,96436.09
2019-06-07T06:02:02.055Z,96425.80
2019-06-07T06:03:00.103Z,96433.63
2019-06-07T06:03:52.181Z,96435.41
2019-06-07T06:05:00.168Z,96430.83
2019-06-07T06:06:07.439Z,96433.09
2019-06-07T06:07:15.431Z,96429.66
2019-06-07T06:08:22.673Z,96431.92
2019-06-07T06:09:30.664Z,96434.05
2019-06-07T06:10:40.356Z,96427.53
2019-06-07T06:11:59.453Z,96430.62
2019-06-07T06:12:56.575Z,96431.09
2019-06-07T06:14:07.920Z,96430.62
2019-06-07T06:15:14.151Z,96445.30
2019-06-07T06:16:22.104Z,96441.39
2019-06-07T06:17:29.328Z,96443.36
2019-06-07T06:18:38.047Z,96441.58
2019-06-07T06:19:49.653Z,96438.36
2019-06-07T06:21:15.118Z,96438.22
2019-06-07T06:22:04.038Z,96429.78
2019-06-07T06:23:12.095Z,96429.31
2019-06-07T06:24:19.316Z,96435.56
2019-06-07T06:25:33.181Z,96434.87
2019-06-07T06:26:38.447Z,96430.75
2019-06-07T06:28:10.985Z,96428.75
2019-06-07T06:28:56.348Z,96427.88
2019-06-07T06:30:04.329Z,96427.80
2019-06-07T06:31:11.565Z,96427.94
2019-06-07T06:33:34.585Z,96424.37
2019-06-07T06:34:40.125Z,96422.93
2019-06-07T06:35:49.348Z,96416.41
2019-06-07T06:36:56.834Z,96423.75
2019-06-07T06:38:04.045Z,96421.28
2019-06-07T06:39:12.034Z,96420.94
2019-06-07T06:40:19.337Z,96427.94
2019-06-07T06:41:27.345Z,96422.85
2019-06-07T06:42:34.581Z,96424.29
2019-06-07T06:43:46.781Z,96422.16
2019-06-07T06:44:53.960Z,96423.11
2019-06-07T06:46:01.239Z,96417.24
2019-06-07T06:47:08.451Z,96421.28
2019-06-07T06:48:16.471Z,96422.59
2019-06-07T06:49:23.760Z,96422.94
2019-06-07T06:50:31.703Z,96420.67
2019-06-07T06:51:39.303Z,96415.46
2019-06-07T06:52:53.410Z,96419.69
2019-06-07T06:53:57.088Z,96420.03
2019-06-07T06:55:07.005Z,96409.26
2019-06-07T06:56:14.194Z,96415.64
2019-06-07T06:57:22.209Z,96408.64
2019-06-07T06:58:29.413Z,96417.16
2019-06-07T06:59:39.643Z,96412.02
2019-06-07T07:01:04.319Z,96417.80
2019-06-07T07:01:59.266Z,96410.29
2019-06-07T07:03:47.844Z,96409.33
2019-06-07T07:04:16.885Z,96410.98
2019-06-07T07:05:24.319Z,96412.50
2019-06-07T07:06:32.415Z,96411.53
2019-06-07T07:07:40.294Z,96415.18
2019-06-07T07:08:50.909Z,96412.92
2019-06-07T07:10:00.063Z,96408.18
2019-06-07T07:11:09.756Z,96408.53
2019-06-07T07:12:16.961Z,96412.44
2019-06-07T07:13:24.966Z,96411.31
2019-06-07T07:14:32.175Z,96409.39
2019-06-07T07:15:42.912Z,96417.78
2019-06-07T07:16:52.475Z,96411.95
2019-06-07T07:18:08.210Z,96409.68
2019-06-07T07:19:07.806Z,96402.69
2019-06-07T07:20:16.107Z,96403.03
2019-06-07T07:21:23.332Z,96399.46
2019-06-07T07:22:31.311Z,96400.59
2019-06-07T07:23:38.519Z,96406.98
2019-06-07T07:24:46.994Z,96405.89
2019-06-07T07:25:59.298Z,96406.58
2019-06-07T07:27:05.148Z,96396.97
2019-06-07T07:28:12.644Z,96401.09
2019-06-07T07:29:20.638Z,96398.69
2019-06-07T07:30:54.467Z,96394.33
2019-06-07T07:31:59.541Z,96390.48
2019-06-07T07:33:07.186Z,96389.19
2019-06-07T07:34:33.560Z,96388.74
2019-06-07T07:35:24.254Z,96387.51
2019-06-07T07:36:39.491Z,96386.61
2019-06-07T07:37:41.197Z,96382.28
2019-06-07T07:38:55.775Z,96384.00
2019-06-07T07:40:21.237Z,96381.31
2019-06-07T07:41:15.249Z,96378.88
2019-06-07T07:42:21.254Z,96381.89
2019-06-07T07:43:26.569Z,96368.56
2019-06-07T07:44:33.893Z,96372.50
2019-06-07T07:45:45.984Z,96367.34
2019-06-07T07:46:53.844Z,96363.48
2019-06-07T07:48:14.785Z,96365.81
2019-06-07T07:49:09.849Z,96365.64
2019-06-07T07:50:18.079Z,96357.67
2019-06-07T07:51:25.830Z,96358.69
2019-06-07T07:52:33.824Z,96353.19
2019-06-07T07:53:52.271Z,96349.30
2019-06-07T07:54:52.864Z,96342.82
2019-06-07T07:56:00.510Z,96354.29
2019-06-07T07:57:08.952Z,96355.31
2019-06-07T07:58:16.192Z,96350.77
2019-06-07T07:59:41.284Z,96349.28
2019-06-07T08:00:52.225Z,96345.22
2019-06-07T08:01:46.007Z,96343.77
2019-06-07T08:02:56.243Z,96344.59
2019-06-07T08:04:02.855Z,96346.24
2019-06-07T08:05:23.225Z,96353.31
2019-06-07T08:06:19.497Z,96349.89
2019-06-07T08:07:26.772Z,96351.73
2019-06-07T08:08:34.882Z,96344.92
2019-06-07T08:09:42.092Z,96337.02
2019-06-07T08:10:52.605Z,96338.34
2019-06-07T08:12:02.223Z,96344.09
2019-06-07T08:13:27.596Z,96336.79
2019-06-07T08:14:21.573Z,96337.44
2019-06-07T08:15:29.576Z,96336.32
2019-06-07T08:16:36.801Z,96345.03
2019-06-07T08:17:47.077Z,96338.69
2019-06-07T08:19:00.344Z,96327.42
2019-06-07T08:20:03.461Z,96327.47
2019-06-07T08:21:24.418Z,96332.26
2019-06-07T08:22:20.393Z,96324.27
2019-06-07T08:23:27.615Z,96322.04
2019-06-07T08:24:35.620Z,96324.03
2019-06-07T08:25:43.298Z,96319.02
2019-06-07T08:27:12.494Z,96317.91
2019-06-07T08:28:00.253Z,96312.08
2019-06-07T08:29:08.700Z,96310.81
2019-06-07T08:30:47.308Z,96311.30
2019-06-07T08:31:27.737Z,96311.22
2019-06-07T08:32:34.952Z,96304.03
2019-06-07T08:33:42.969Z,96300.27
2019-06-07T08:34:54.927Z,96303.40
2019-06-07T08:36:13.928Z,96296.89
2019-06-07T08:37:08.792Z,96299.53
2019-06-07T08:38:29.789Z,96294.78
2019-06-07T08:39:25.826Z,96294.17
2019-06-07T08:40:33.827Z,96293.69
2019-06-07T08:41:54.101Z,96293.08
2019-06-07T08:43:10.864Z,96288.20
2019-06-07T08:44:02.653Z,96288.19
2019-06-07T08:45:10.414Z,96292.48
2019-06-07T08:46:17.653Z,96285.95
2019-06-07T08:47:25.658Z,96288.56
2019-06-07T08:48:32.883Z,96282.86
2019-06-07T08:49:40.931Z,96286.96
2019-06-07T08:50:48.115Z,96286.86
2019-06-07T08:52:04.549Z,96288.00
2019-06-07T08:53:12.064Z,96283.44
2019-06-07T08:54:22.972Z,96282.97
2019-06-07T08:55:23.996Z,96279.52
2019-06-07T08:56:32.005Z,96288.06
2019-06-07T08:57:39.244Z,96283.32
2019-06-07T08:58:47.222Z,96284.79
2019-06-07T08:59:56.595Z,96284.45
2019-06-07T09:01:08.323Z,96283.00
2019-06-07T09:02:23.336Z,96279.55
2019-06-07T09:03:22.713Z,96282.34
2019-06-07T09:04:29.935Z,96279.55
2019-06-07T09:05:37.956Z,96276.28
2019-06-07T09:08:21.220Z,96274.98
2019-06-07T09:09:05.371Z,96269.25
2019-06-07T09:10:15.553Z,96271.85
2019-06-07T09:11:22.864Z,96268.41
2019-06-07T09:12:30.872Z,96262.18
2019-06-07T09:13:38.078Z,96258.90
2019-06-07T09:14:59.978Z,96263.82
2019-06-07T09:15:55.975Z,96267.40
2019-06-07T09:17:11.183Z,96263.30
2019-06-07T09:19:23.315Z,96259.20
2019-06-07T09:20:45.830Z,96256.25
2019-06-07T09:21:54.683Z,96249.66
2019-06-07T09:23:11.563Z,96253.09
2019-06-07T09:24:12.455Z,96252.27
2019-06-07T09:25:21.430Z,96251.25
2019-06-07T09:26:30.059Z,96249.77
2019-06-07T09:27:37.857Z,96250.88
2019-06-07T09:28:46.658Z,96255.33
2019-06-07T09:29:54.063Z,96244.13
2019-06-07T09:31:06.929Z,96251.34
2019-06-07T09:32:16.315Z,96249.49
2019-06-07T09:33:20.716Z,96248.66
2019-06-07T09:34:27.925Z,96248.82
2019-06-07T09:35:36.105Z,96247.50
2019-06-07T09:36:43.629Z,96250.90
2019-06-07T09:38:07.289Z,96249.25
2019-06-07T09:39:07.619Z,96241.35
2019-06-07T09:40:24.857Z,96242.13
2019-06-07T09:41:21.250Z,96238.66
2019-06-07T09:42:29.259Z,96242.44
2019-06-07T09:44:46.182Z,96236.17
2019-06-07T09:45:53.411Z,96245.33
2019-06-07T09:47:20.647Z,96236.60
2019-06-07T09:48:16.038Z,96237.90
2019-06-07T09:49:31.408Z,96235.90
2019-06-07T09:50:28.930Z,96232.26
2019-06-07T09:51:36.954Z,96232.04
2019-06-07T09:52:57.809Z,96230.36
2019-06-07T09:53:53.897Z,96223.38
2019-06-07T09:55:09.375Z,96219.55
2019-06-07T09:56:12.089Z,96217.34
2019-06-07T09:57:19.701Z,96222.19
2019-06-07T09:58:51.193Z,96216.73
2019-06-07T09:59:36.636Z,96214.22
2019-06-07T10:00:44.650Z,96216.61
2019-06-07T10:01:51.841Z,96214.13
2019-06-07T10:03:09.478Z,96211.42
2019-06-07T10:04:26.763Z,96215.98
2019-06-07T10:05:18.797Z,96214.60
2019-06-07T10:06:26.023Z,96212.58
2019-06-07T10:07:34.035Z,96219.55
2019-06-07T10:10:12.642Z,96213.14
2019-06-07T10:11:04.743Z,96210.47
2019-06-07T10:12:12.807Z,96201.84
2019-06-07T10:13:20.018Z,96206.05
2019-06-07T10:14:28.009Z,96195.78
2019-06-07T10:15:35.324Z,96195.20
2019-06-07T10:16:46.694Z,96197.47
2019-06-07T10:17:52.266Z,96187.80
2019-06-07T10:19:01.575Z,96185.58
2019-06-07T10:20:09.878Z,96186.44
2019-06-07T10:21:17.982Z,96183.89
2019-06-07T10:22:25.205Z,96181.81
2019-06-07T10:23:33.204Z,96173.16
2019-06-07T10:24:40.406Z,96180.11
2019-06-07T10:25:48.397Z,96175.92
2019-06-07T10:26:55.639Z,96178.95
2019-06-07T10:28:03.890Z,96176.67
2019-06-07T10:29:11.225Z,96175.55
2019-06-07T10:30:19.208Z,96170.11
2019-06-07T10:31:26.425Z,96162.05
2019-06-07T10:32:34.442Z,96171.34
2019-06-07T10:33:41.655Z,96174.95
2019-06-07T10:34:49.644Z,96173.70
2019-06-07T10:35:56.852Z,96170.92
2019-06-07T10:37:07.622Z,96169.31
2019-06-07T10:38:13.795Z,96169.88
2019-06-07T10:39:21.788Z,96173.27
2019-06-07T10:40:28.996Z,96172.34
2019-06-07T10:41:37.001Z,96168.81
2019-06-07T10:42:44.214Z,96163.97
2019-06-07T10:43:52.224Z,96166.81
2019-06-07T10:44:59.446Z,96155.67
2019-06-07T10:46:07.705Z,96152.95
2019-06-07T10:47:15.038Z,96151.02
2019-06-07T10:48:25.034Z,96154.09
2019-06-07T10:49:31.966Z,96150.56
2019-06-07T10:50:39.991Z,96151.77
2019-06-07T10:51:47.213Z,96147.11
2019-06-07T10:52:55.219Z,96138.67
2019-06-07T10:54:10.958Z,96135.33
2019-06-07T10:55:12.731Z,96138.73
2019-06-07T10:56:19.929Z,96136.30
2019-06-07T10:57:27.942Z,96133.68
2019-06-07T10:58:35.160Z,96133.38
2019-06-07T10:59:43.152Z,96139.51
2019-06-07T11:00:50.393Z,96134.52
2019-06-07T11:01:58.383Z,96133.23
2019-06-07T11:03:06.049Z,96131.28
2019-06-07T11:04:14.129Z,96128.55
2019-06-07T11:05:21.444Z,96133.44
2019-06-07T11:06:29.437Z,96123.47
2019-06-07T11:07:36.720Z,96125.19
2019-06-07T11:08:44.740Z,96126.11
2019-06-07T11:10:06.379Z,96115.16
2019-06-07T11:11:01.667Z,96116.08
2019-06-07T11:12:10.572Z,96118.60
2019-06-07T11:13:18.778Z,96113.83
2019-06-07T11:14:25.985Z,96114.63
2019-06-07T11:15:34.008Z,96118.61
2019-06-07T11:16:41.233Z,96110.75
2019-06-07T11:17:49.269Z,96111.34
2019-06-07T11:18:56.495Z,96113.58
2019-06-07T11:20:06.054Z,96112.56
2019-06-07T11:21:14.314Z,96112.27
2019-06-07T11:22:22.479Z,96104.69
2019-06-07T11:23:29.705Z,96104.28
2019-06-07T11:24:38.782Z,96096.94
2019-06-07T11:25:46.017Z,96100.20
2019-06-07T11:26:54.055Z,96099.55
2019-06-07T11:28:01.294Z,96101.17
2019-06-07T11:29:10.766Z,96100.63
2019-06-07T11:30:18.798Z,96100.11
2019-06-07T11:31:26.818Z,96102.41
2019-06-07T11:32:34.039Z,96106.70
2019-06-07T11:33:42.033Z,96102.59
2019-06-07T11:34:49.242Z,96102.27
2019-06-07T11:35:57.232Z,96103.54
2019-06-07T11:37:04.656Z,96097.52
2019-06-07T11:38:12.698Z,96105.77
2019-06-07T11:39:19.902Z,96104.96
2019-06-07T11:40:34.861Z,96106.59
2019-06-07T11:41:36.835Z,96103.22
2019-06-07T11:42:44.836Z,96099.84
2019-06-07T11:43:52.062Z,96106.03
2019-06-07T11:45:00.067Z,96106.42
2019-06-07T11:46:07.278Z,96104.47
2019-06-07T11:47:15.272Z,96095.03
2019-06-07T11:48:23.576Z,96102.66
2019-06-07T11:49:31.568Z,96094.59
2019-06-07T11:50:38.795Z,96091.27
2019-06-07T11:51:46.818Z,96092.08
2019-06-07T11:52:54.056Z,96092.89
2019-06-07T11:54:02.047Z,96090.75
2019-06-07T11:55:11.345Z,96091.05
2019-06-07T11:56:19.199Z,96080.23
2019-06-07T11:57:26.427Z,96080.02
2019-06-07T11:58:34.432Z,96076.88
2019-06-07T11:59:41.688Z,96076.97
2019-06-07T12:00:49.914Z,96070.42
2019-06-07T12:01:57.115Z,96076.00
2019-06-07T12:03:07.422Z,96061.70
2019-06-07T12:04:31.158Z,96060.89
2019-06-07T12:05:24.495Z,96064.61
2019-06-07T12:06:31.707Z,96061.86
2019-06-07T12:07:39.701Z,96063.70
2019-06-07T12:08:46.922Z,96058.09
2019-06-07T12:09:56.691Z,96057.58
2019-06-07T12:11:03.862Z,96054.77
2019-06-07T12:12:12.606Z,96051.18
2019-06-07T12:13:19.980Z,96054.01
2019-06-07T12:14:27.988Z,96050.98
2019-06-07T12:15:35.197Z,96058.09
2019-06-07T12:16:43.222Z,96046.37
2019-06-07T12:17:50.429Z,96046.31
2019-06-07T12:18:58.435Z,96053.27
2019-06-07T12:20:08.771Z,96048.50
2019-06-07T12:21:17.951Z,96048.95
2019-06-07T12:22:25.384Z,96044.29
2019-06-07T12:23:33.374Z,96045.70
2019-06-07T12:24:40.717Z,96042.53
2019-06-07T12:25:48.724Z,96040.17
2019-06-07T12:26:55.950Z,96036.70
2019-06-07T12:28:03.985Z,96032.50
2019-06-07T12:29:11.210Z,96026.75
2019-06-07T12:30:26.268Z,96029.19
2019-06-07T12:31:28.352Z,96027.12
2019-06-07T12:32:36.354Z,96035.36
2019-06-07T12:33:43.596Z,96029.83
2019-06-07T12:34:51.606Z,96024.73
2019-06-07T12:35:58.815Z,96022.37
2019-06-07T12:37:06.857Z,96018.86
2019-06-07T12:38:14.605Z,96019.38
2019-06-07T12:39:23.180Z,96013.76
2019-06-07T12:40:32.387Z,96003.35
2019-06-07T12:41:40.119Z,96016.64
2019-06-07T12:42:47.344Z,96009.18
2019-06-07T12:43:58.976Z,96005.71
2019-06-07T12:45:04.452Z,96007.34
2019-06-07T12:46:15.436Z,96005.20
2019-06-07T12:47:21.372Z,96007.85
2019-06-07T12:48:29.390Z,96003.86
2019-06-07T12:49:36.604Z,96001.80
2019-06-07T12:50:44.634Z,96002.09
2019-06-07T12:51:51.859Z,95994.69
2019-06-07T12:52:59.883Z,95996.39
2019-06-07T12:54:08.081Z,95994.92
2019-06-07T12:55:18.109Z,95994.83
2019-06-07T12:56:25.369Z,95999.27
2019-06-07T12:57:33.374Z,95998.59
2019-06-07T12:58:40.599Z,95996.80
2019-06-07T12:59:48.596Z,95991.78
2019-06-07T13:00:59.519Z,95994.54
2019-06-07T13:02:05.506Z,95991.37
2019-06-07T13:03:14.154Z,95984.42
2019-06-07T13:04:22.566Z,95988.89
2019-06-07T13:05:29.882Z,95980.44
2019-06-07T13:06:37.975Z,95982.36
2019-06-07T13:07:45.186Z,95990.41
2019-06-07T13:08:53.261Z,95985.13
2019-06-07T13:10:00.466Z,95986.83
2019-06-07T13:11:15.981Z,95978.92
2019-06-07T13:12:17.607Z,95985.72
2019-06-07T13:13:25.697Z,95987.45
2019-06-07T13:14:32.893Z,95989.67
2019-06-07T13:15:40.917Z,95988.63
2019-06-07T13:16:48.173Z,95991.52
2019-06-07T13:17:56.225Z,95989.97
2019-06-07T13:19:03.447Z,95990.26
2019-06-07T13:20:12.459Z,95998.53
2019-06-07T13:21:20.266Z,95991.30
2019-06-07T13:22:28.648Z,95989.81
2019-06-07T13:23:35.940Z,95988.38
2019-06-07T13:24:43.945Z,95990.45
2019-06-07T13:25:51.304Z,95984.02
2019-06-07T13:26:59.296Z,95987.78
2019-06-07T13:28:06.662Z,95991.03
2019-06-07T13:29:14.675Z,95991.30
2019-06-07T13:30:23.524Z,95993.29
2019-06-07T13:31:31.830Z,95996.09
2019-06-07T13:32:39.039Z,95996.20
2019-06-07T13:33:47.051Z,95981.20
2019-06-07T13:34:54.282Z,95992.77